Veuillez saisir l'adresse e-mail associée à votre compte d'utilisateur. Votre identifiant vous sera envoyé à cette adresse.

METAR TAF

[Source: ADDS]
METAR
LFCR 240300Z AUTO 31014KT 9999 BKN021 OVC042 M02/M04 Q1003 TEMPO OVC005 =
LFCR 232300Z 2400/2424 31012KT 9999 OVC017 PROB40 2400/2407 OVC005 PROB40 TEMPO 2407/2411 BKN012 BECMG 2413/2415 SCT025 BECMG 2417/2419 CAVOK PROB30 TEMPO 2420/2423 BKN008 LFBA 240300Z AUTO 29008KT CAVOK 01/M02 Q1009 =
LFBA 231700Z 2318/2403 31010KT 9999 SCT040 PROB40 TEMPO 2318/2324 31015G25KT BECMG 2400/2403 BKN005 LFSL 240300Z AUTO 33010KT 9999 OVC031 01/M03 Q1006 NOSIG =
LFSL 240200Z 2403/2412 34010KT 9999 BKN035 TEMPO 2408/2411 BKN008 BECMG 2411/2412 SCT017 LFLW 240300Z AUTO VRB04KT 9999 BKN021 BKN027 OVC032 M02/M05 Q1003 =
TAF
LFCR 232300Z 2400/2424 31012KT 9999 OVC017 PROB40 2400/2407 OVC005 PROB40 TEMPO 2407/2411 BKN012 BECMG 2413/2415 SCT025 BECMG 2417/2419 CAVOK PROB30 TEMPO 2420/2423 BKN008 =
LFBA 231700Z 2318/2403 31010KT 9999 SCT040 PROB40 TEMPO 2318/2324 31015G25KT BECMG 2400/2403 BKN005 =
LFSL 240200Z 2403/2412 34010KT 9999 BKN035 TEMPO 2408/2411 BKN008 BECMG 2411/2412 SCT017 =
SR / SS: 07:20 / 16:51 UTC (LFCC 2019-01-24)